Time;durP1;ratioP1;P1;durP2;ratioP2;P2;SDS_P1;SDS_P2;PMS_P1;PMS_P2;Temp;Humidity;BMP_temperature;BMP_pressure;BME280_temperature;BME280_humidity;BME280_pressure;Samples;Min_cycle;Max_cycle;Signal;HPM_P1;HPM_P2
2022/05/11 00:01:49;;;;;;;4.32;3.13;;;20.20;95.00;;;;;;4969929;28;20059;-68
2022/05/11 00:04:15;;;;;;;6.55;3.00;;;20.20;94.80;;;;;;4969339;28;20031;-67
2022/05/11 00:06:41;;;;;;;6.85;3.28;;;20.20;94.60;;;;;;4968624;28;20549;-67
2022/05/11 00:09:10;;;;;;;3.97;3.10;;;20.20;94.80;;;;;;4969703;28;20019;-67
2022/05/11 00:11:36;;;;;;;6.85;2.75;;;20.20;94.80;;;;;;4969288;28;20041;-67
2022/05/11 00:14:03;;;;;;;6.22;2.67;;;20.20;95.10;;;;;;4968855;28;20105;-67
2022/05/11 00:16:30;;;;;;;4.68;2.50;;;20.20;94.40;;;;;;4970801;28;20031;-67
2022/05/11 00:18:56;;;;;;;11.48;3.08;;;20.30;94.60;;;;;;4969895;28;20066;-67
2022/05/11 00:21:22;;;;;;;6.75;2.78;;;20.20;94.50;;;;;;4970364;28;20027;-67
2022/05/11 00:23:48;;;;;;;5.38;2.47;;;20.20;94.60;;;;;;4969739;28;20076;-67
2022/05/11 00:26:14;;;;;;;3.63;2.33;;;20.20;94.60;;;;;;4969394;28;20031;-67
2022/05/11 00:28:40;;;;;;;6.25;2.20;;;20.30;94.60;;;;;;4969069;28;20015;-67
2022/05/11 00:31:05;;;;;;;8.65;2.45;;;20.30;94.50;;;;;;4968895;28;20053;-67
2022/05/11 00:33:31;;;;;;;2.88;2.10;;;20.30;94.30;;;;;;4969770;28;20454;-67
2022/05/11 00:35:57;;;;;;;4.90;2.92;;;20.20;94.30;;;;;;4969380;28;20423;-67
2022/05/11 00:38:25;;;;;;;5.30;2.30;;;20.20;94.40;;;;;;4969287;28;20034;-68
2022/05/11 00:40:56;;;;;;;7.18;2.70;;;20.30;94.30;;;;;;4969325;28;20034;-67
2022/05/11 00:43:34;;;;;;;6.30;1.90;;;20.20;94.60;;;;;;4968476;28;20389;-67
2022/05/11 00:46:19;;;;;;;4.97;2.38;;;20.20;94.30;;;;;;4981421;28;20081;-67
2022/05/11 00:51:44;;;;;;;5.00;2.20;;;20.00;95.30;;;;;;4962082;28;20041;-67
2022/05/11 00:54:12;;;;;;;4.47;2.03;;;20.00;95.00;;;;;;4971038;28;20054;-67
2022/05/11 00:56:41;;;;;;;3.42;2.22;;;20.00;94.60;;;;;;4971208;28;20467;-67
2022/05/11 00:59:15;;;;;;;5.75;2.33;;;20.00;94.60;;;;;;4970995;28;20027;-67
2022/05/11 01:01:42;;;;;;;2.72;2.03;;;20.00;94.70;;;;;;4970264;28;20026;-67
2022/05/11 01:04:18;;;;;;;3.45;1.88;;;20.00;94.80;;;;;;4970862;28;20031;-68
2022/05/11 01:06:44;;;;;;;5.80;2.55;;;20.00;94.50;;;;;;4969997;28;20479;-67
2022/05/11 01:09:10;;;;;;;4.35;2.08;;;20.00;94.80;;;;;;4970548;28;20037;-68
2022/05/11 01:11:40;;;;;;;4.97;2.35;;;20.00;94.90;;;;;;4970422;28;20520;-67
2022/05/11 01:14:07;;;;;;;4.10;2.05;;;20.00;94.50;;;;;;4970029;28;20027;-67
2022/05/11 01:16:35;;;;;;;6.40;2.67;;;19.90;94.70;;;;;;4969022;28;20031;-67
2022/05/11 01:19:01;;;;;;;4.97;2.53;;;19.90;94.50;;;;;;4970483;28;20391;-67
2022/05/11 01:21:39;;;;;;;4.78;2.42;;;19.90;94.50;;;;;;4970900;28;20026;-68
2022/05/11 01:24:24;;;;;;;5.22;2.22;;;19.80;94.50;;;;;;4973476;28;20038;-67
2022/05/11 01:26:50;;;;;;;4.80;2.35;;;19.80;94.60;;;;;;4973808;28;20038;-67
2022/05/11 01:29:16;;;;;;;4.35;2.20;;;19.90;94.60;;;;;;4973875;28;20042;-67
2022/05/11 01:31:41;;;;;;;4.15;2.10;;;19.90;94.40;;;;;;4973779;28;20027;-67
2022/05/11 01:34:07;;;;;;;5.53;2.38;;;19.80;94.80;;;;;;4973961;28;20019;-67
2022/05/11 01:36:34;;;;;;;4.68;2.10;;;19.80;94.70;;;;;;4973256;28;20023;-67
2022/05/11 01:39:06;;;;;;;8.57;2.25;;;19.80;94.90;;;;;;4972645;28;20061;-67
2022/05/11 01:41:38;;;;;;;4.68;2.28;;;19.70;94.60;;;;;;4955274;28;20050;-68
2022/05/11 01:44:07;;;;;;;3.55;2.28;;;19.80;94.70;;;;;;4973229;28;20019;-67
2022/05/11 01:46:33;;;;;;;3.83;2.25;;;19.70;94.40;;;;;;4972058;28;20391;-67
2022/05/11 01:48:59;;;;;;;10.32;2.47;;;19.70;94.50;;;;;;4973574;28;20019;-67
2022/05/11 01:51:24;;;;;;;5.97;2.63;;;19.60;94.60;;;;;;4973785;28;20379;-67
2022/05/11 01:53:51;;;;;;;5.88;2.58;;;19.60;95.10;;;;;;4974096;28;20475;-67
2022/05/11 01:56:21;;;;;;;5.03;2.30;;;19.60;94.60;;;;;;4972735;28;20483;-67
2022/05/11 01:58:47;;;;;;;6.45;2.25;;;19.70;94.60;;;;;;4973357;28;20108;-67
2022/05/11 02:01:19;;;;;;;5.60;2.38;;;19.60;94.80;;;;;;4973290;28;20015;-67
2022/05/11 02:03:46;;;;;;;4.63;2.53;;;19.60;94.70;;;;;;4973422;28;20027;-67
2022/05/11 02:08:57;;;;;;;6.47;2.63;;;19.70;94.90;;;;;;4973796;28;20033;-67
2022/05/11 02:11:22;;;;;;;3.35;2.20;;;19.60;94.90;;;;;;4973301;28;20035;-67
2022/05/11 02:13:48;;;;;;;5.55;2.65;;;19.70;95.00;;;;;;4973292;28;20037;-67
2022/05/11 02:16:14;;;;;;;6.72;2.72;;;19.70;94.70;;;;;;4973379;28;20438;-67
2022/05/11 02:18:40;;;;;;;4.72;2.53;;;19.70;94.60;;;;;;4972643;28;20031;-67
2022/05/11 02:21:09;;;;;;;6.82;2.45;;;19.70;95.00;;;;;;4973161;28;20077;-67
2022/05/11 02:23:37;;;;;;;4.40;2.00;;;19.60;94.90;;;;;;4973348;28;20019;-67
2022/05/11 02:26:03;;;;;;;3.28;1.98;;;19.70;94.80;;;;;;4972441;28;20088;-67
2022/05/11 02:28:29;;;;;;;4.05;2.40;;;19.70;94.80;;;;;;4972283;28;20525;-67
2022/05/11 02:30:57;;;;;;;3.60;2.28;;;19.70;94.90;;;;;;4973302;28;20169;-67
2022/05/11 02:33:24;;;;;;;7.05;2.13;;;19.70;94.70;;;;;;4972727;28;20084;-67
2022/05/11 02:35:50;;;;;;;5.82;2.17;;;19.70;95.10;;;;;;4973407;28;20037;-67
2022/05/11 02:38:26;;;;;;;4.47;2.10;;;19.80;95.20;;;;;;4972879;28;20077;-67
2022/05/11 02:40:52;;;;;;;5.25;2.47;;;19.80;94.70;;;;;;4973787;28;20146;-67
2022/05/11 02:43:18;;;;;;;4.60;2.15;;;19.70;94.80;;;;;;4972804;28;20023;-67
2022/05/11 02:45:45;;;;;;;5.10;2.40;;;19.70;95.20;;;;;;4973349;28;20026;-67
2022/05/11 02:48:13;;;;;;;2.78;2.10;;;19.70;95.00;;;;;;4972823;28;20027;-67
2022/05/11 02:50:51;;;;;;;4.05;2.20;;;19.70;95.40;;;;;;4973131;28;20015;-67
2022/05/11 02:53:18;;;;;;;3.90;2.20;;;19.70;95.40;;;;;;4972780;28;20532;-67
2022/05/11 02:55:45;;;;;;;5.90;2.05;;;19.70;95.10;;;;;;4979436;28;20137;-67
2022/05/11 02:58:13;;;;;;;2.95;1.88;;;19.70;95.40;;;;;;4991975;28;20478;-67
2022/05/11 03:00:43;;;;;;;3.28;2.20;;;19.70;95.40;;;;;;4979033;28;20023;-67
2022/05/11 03:03:11;;;;;;;3.13;1.98;;;19.70;95.40;;;;;;4972923;28;20027;-67
2022/05/11 03:05:38;;;;;;;4.40;1.80;;;19.60;95.80;;;;;;4973086;28;20035;-67
2022/05/11 03:08:04;;;;;;;5.30;2.47;;;19.60;95.30;;;;;;4972666;28;20027;-67
2022/05/11 03:10:31;;;;;;;3.90;1.83;;;19.60;95.10;;;;;;4972588;28;20039;-67
2022/05/11 03:12:57;;;;;;;2.83;2.30;;;19.60;95.70;;;;;;4971352;28;20038;-67
2022/05/11 03:15:23;;;;;;;4.20;2.05;;;19.60;95.10;;;;;;4972764;28;20022;-67
2022/05/11 03:17:49;;;;;;;3.38;2.25;;;19.60;95.20;;;;;;4972610;28;20037;-67
2022/05/11 03:20:15;;;;;;;4.88;2.10;;;19.60;95.40;;;;;;4972610;28;20113;-67
2022/05/11 03:22:41;;;;;;;3.15;2.28;;;19.60;95.10;;;;;;4971697;28;20380;-67
2022/05/11 03:25:08;;;;;;;3.15;1.92;;;19.60;95.60;;;;;;4972155;28;20034;-67
2022/05/11 03:27:34;;;;;;;2.03;1.70;;;19.70;95.00;;;;;;4971655;28;20039;-67
2022/05/11 03:29:59;;;;;;;4.93;2.13;;;19.60;95.20;;;;;;4972088;28;20353;-67
2022/05/11 03:35:10;;;;;;;6.55;2.00;;;19.60;95.90;;;;;;4972448;28;20042;-67
2022/05/11 03:37:37;;;;;;;4.05;2.10;;;19.60;95.10;;;;;;4972335;28;20033;-67
2022/05/11 03:40:05;;;;;;;1.92;1.83;;;19.60;95.20;;;;;;4971895;28;20018;-67
2022/05/11 03:42:32;;;;;;;2.65;2.25;;;19.50;95.20;;;;;;4972757;28;20172;-67
2022/05/11 03:45:15;;;;;;;2.83;2.15;;;19.40;95.60;;;;;;4971428;28;20069;-67
2022/05/11 03:47:41;;;;;;;5.57;2.42;;;19.40;95.60;;;;;;4971760;28;20074;-67
2022/05/11 03:50:07;;;;;;;5.07;2.42;;;19.40;95.90;;;;;;4990665;28;20038;-67
2022/05/11 03:52:34;;;;;;;3.67;1.90;;;19.40;96.10;;;;;;4992068;28;20535;-67
2022/05/11 03:55:00;;;;;;;5.20;2.00;;;19.40;95.60;;;;;;4988408;28;20105;-67
2022/05/11 03:57:26;;;;;;;5.75;2.28;;;19.30;95.60;;;;;;4972134;28;20038;-67
2022/05/11 03:59:52;;;;;;;6.22;2.00;;;19.30;95.60;;;;;;4971825;28;20031;-67
2022/05/11 04:02:18;;;;;;;2.08;1.70;;;19.30;95.60;;;;;;4971917;28;20035;-67
2022/05/11 04:04:43;;;;;;;2.67;2.33;;;19.20;96.40;;;;;;4971802;28;20027;-67
2022/05/11 04:07:09;;;;;;;2.05;1.85;;;19.20;96.50;;;;;;4971752;28;20039;-67
2022/05/11 04:09:34;;;;;;;3.25;2.10;;;19.20;96.20;;;;;;4971518;28;20019;-67
2022/05/11 04:12:00;;;;;;;3.33;2.03;;;19.20;96.10;;;;;;4972291;28;20382;-67
2022/05/11 04:14:25;;;;;;;2.22;1.98;;;19.20;96.40;;;;;;4971735;28;20035;-67
2022/05/11 04:16:58;;;;;;;7.35;2.13;;;19.20;96.40;;;;;;4971695;28;20023;-67
2022/05/11 04:19:25;;;;;;;3.80;2.08;;;19.20;96.10;;;;;;4970370;28;20035;-67
2022/05/11 04:21:50;;;;;;;6.53;1.98;;;19.20;96.10;;;;;;4971920;28;20026;-67
2022/05/11 04:24:16;;;;;;;11.20;2.55;;;19.20;96.20;;;;;;4971428;28;20030;-67
2022/05/11 04:26:42;;;;;;;3.42;1.80;;;19.20;96.20;;;;;;4971682;28;20035;-67
2022/05/11 04:29:07;;;;;;;7.07;2.40;;;19.10;96.40;;;;;;4971875;28;20419;-67
2022/05/11 04:31:33;;;;;;;3.88;2.13;;;19.10;96.30;;;;;;4971551;28;20035;-67
2022/05/11 04:33:58;;;;;;;2.72;2.50;;;19.10;96.30;;;;;;4971141;28;20023;-67
2022/05/11 04:36:24;;;;;;;4.15;2.08;;;19.10;96.30;;;;;;4971637;28;20023;-69
2022/05/11 04:38:50;;;;;;;4.07;2.13;;;19.20;96.20;;;;;;4971095;28;20062;-67
2022/05/11 04:41:16;;;;;;;4.80;2.25;;;19.20;96.30;;;;;;4970514;28;20379;-67
2022/05/11 04:43:42;;;;;;;10.38;2.67;;;19.20;96.90;;;;;;4971170;28;20076;-67
2022/05/11 04:46:08;;;;;;;3.08;2.50;;;19.10;96.30;;;;;;4970965;28;20039;-68
2022/05/11 04:48:33;;;;;;;4.65;2.35;;;19.20;96.50;;;;;;4970951;28;20062;-67
2022/05/11 04:51:03;;;;;;;4.43;2.80;;;19.20;97.20;;;;;;4971352;28;20069;-67
2022/05/11 04:53:29;;;;;;;4.25;2.70;;;19.10;96.40;;;;;;4970780;28;20053;-67
2022/05/11 04:55:55;;;;;;;4.72;2.80;;;19.10;96.70;;;;;;4970569;28;20101;-67
2022/05/11 04:58:20;;;;;;;4.57;2.63;;;19.00;96.70;;;;;;4970826;28;20023;-67
2022/05/11 05:00:46;;;;;;;5.82;2.60;;;19.00;96.90;;;;;;4971243;28;20037;-67
2022/05/11 05:03:14;;;;;;;4.22;2.65;;;18.90;97.20;;;;;;4971434;28;20031;-67
2022/05/11 05:05:40;;;;;;;4.55;2.40;;;18.90;96.70;;;;;;4970823;28;20493;-67
2022/05/11 05:08:07;;;;;;;4.47;2.50;;;18.90;96.80;;;;;;4971000;28;20383;-67
2022/05/11 05:10:33;;;;;;;7.55;2.78;;;18.90;97.20;;;;;;4968765;28;20035;-69
2022/05/11 05:13:04;;;;;;;4.82;2.75;;;18.90;97.40;;;;;;4970302;28;20034;-68
2022/05/11 05:15:30;;;;;;;7.00;3.00;;;18.90;97.40;;;;;;4970502;28;20487;-66
2022/05/11 05:17:56;;;;;;;6.22;3.50;;;18.90;97.00;;;;;;4970997;28;20027;-66
2022/05/11 05:20:22;;;;;;;5.57;2.70;;;18.90;97.10;;;;;;4970038;28;20076;-66
2022/05/11 05:22:48;;;;;;;4.22;2.65;;;19.00;97.30;;;;;;4969766;28;20023;-66
2022/05/11 05:25:14;;;;;;;4.88;2.60;;;19.00;97.40;;;;;;4970536;28;20442;-66
2022/05/11 05:27:40;;;;;;;6.30;2.80;;;18.90;97.80;;;;;;4971031;28;20023;-66
2022/05/11 05:32:51;;;;;;;7.10;3.17;;;18.90;97.00;;;;;;4970290;28;20046;-66
2022/05/11 05:35:18;;;;;;;5.95;2.97;;;18.90;97.20;;;;;;4970053;28;20387;-66
2022/05/11 05:37:45;;;;;;;4.65;3.05;;;18.90;97.20;;;;;;4970482;28;20039;-67
2022/05/11 05:40:11;;;;;;;12.55;3.45;;;18.90;97.20;;;;;;4970045;28;20098;-67
2022/05/11 05:42:37;;;;;;;7.15;3.95;;;18.90;97.60;;;;;;4970736;28;20168;-66
2022/05/11 05:45:04;;;;;;;3.13;2.83;;;18.80;97.60;;;;;;4970735;28;20436;-66
2022/05/11 05:47:29;;;;;;;4.13;3.10;;;18.90;97.80;;;;;;4970127;28;20031;-67
2022/05/11 05:49:55;;;;;;;6.22;3.70;;;18.80;98.10;;;;;;4981913;28;20022;-67
2022/05/11 05:52:23;;;;;;;6.10;3.70;;;18.80;97.90;;;;;;4989514;28;20434;-66
2022/05/11 05:54:50;;;;;;;4.80;3.72;;;18.80;97.60;;;;;;4990332;28;20543;-66
2022/05/11 05:57:16;;;;;;;7.60;3.83;;;18.80;97.60;;;;;;4989996;28;20030;-66
2022/05/11 05:59:42;;;;;;;7.80;3.78;;;18.80;97.70;;;;;;4990069;28;20031;-67
2022/05/11 06:02:13;;;;;;;7.50;3.08;;;18.90;98.10;;;;;;4972237;28;20038;-67
2022/05/11 06:04:43;;;;;;;6.20;3.70;;;18.80;97.70;;;;;;4969252;28;20035;-66
2022/05/11 06:07:11;;;;;;;6.35;3.05;;;18.90;98.10;;;;;;4970345;28;20043;-67
2022/05/11 06:09:38;;;;;;;5.65;3.50;;;18.90;98.10;;;;;;4973604;28;20019;-67
2022/05/11 06:12:07;;;;;;;3.03;2.60;;;18.90;97.90;;;;;;4973793;28;20065;-67
2022/05/11 06:14:33;;;;;;;7.70;3.15;;;18.90;98.60;;;;;;4971981;28;20093;-66
2022/05/11 06:16:59;;;;;;;3.22;2.75;;;18.90;97.80;;;;;;4973729;28;20019;-67
2022/05/11 06:19:26;;;;;;;6.03;3.30;;;19.00;97.90;;;;;;4973570;28;20035;-67
2022/05/11 06:21:52;;;;;;;9.80;3.47;;;19.00;97.90;;;;;;4973529;28;20023;-66
2022/05/11 06:24:18;;;;;;;4.22;2.83;;;18.90;98.10;;;;;;4973489;28;20031;-67
2022/05/11 06:26:44;;;;;;;3.65;2.80;;;18.90;97.90;;;;;;4973587;28;20039;-66
2022/05/11 06:29:10;;;;;;;2.90;2.28;;;18.90;97.80;;;;;;4973744;28;20107;-67
2022/05/11 06:31:36;;;;;;;6.63;2.33;;;18.90;97.30;;;;;;4973083;28;20026;-66
2022/05/11 06:34:01;;;;;;;4.78;1.85;;;18.90;97.40;;;;;;4972468;28;20053;-66
2022/05/11 06:36:27;;;;;;;5.20;2.10;;;19.00;97.20;;;;;;4969095;28;20030;-66
2022/05/11 06:38:54;;;;;;;7.00;1.80;;;19.00;97.30;;;;;;4972534;28;20364;-67
2022/05/11 06:41:26;;;;;;;4.65;1.50;;;19.00;96.90;;;;;;4972890;28;20031;-67
2022/05/11 06:43:52;;;;;;;;;;;19.10;96.60;;;;;;4971312;28;20034;-67
2022/05/11 06:46:18;;;;;;;4.20;1.90;;;19.10;96.50;;;;;;4973110;28;20366;-67
2022/05/11 06:48:48;;;;;;;7.80;1.92;;;19.10;96.20;;;;;;4971332;28;20429;-66
2022/05/11 06:51:15;;;;;;;7.18;1.83;;;19.10;95.70;;;;;;4970925;28;20015;-67
2022/05/11 06:59:21;;;;;;;2.70;1.55;;;19.20;95.60;;;;;;4971830;28;20038;-66
2022/05/11 07:01:55;;;;;;;4.57;1.55;;;19.40;95.50;;;;;;4971521;28;20038;-66
2022/05/11 07:04:25;;;;;;;8.52;1.80;;;19.40;95.30;;;;;;4972352;28;20023;-67
2022/05/11 07:06:52;;;;;;;5.90;1.63;;;19.50;95.00;;;;;;4971503;28;20030;-66
2022/05/11 07:09:19;;;;;;;2.53;1.55;;;19.50;95.20;;;;;;5029713;28;20112;-66
2022/05/11 07:14:28;;;;;;;2.85;1.40;;;19.70;95.40;;;;;;4971622;28;20517;-67
2022/05/11 07:16:55;;;;;;;4.60;1.90;;;19.90;94.80;;;;;;4971387;28;20027;-67
2022/05/11 07:19:23;;;;;;;6.57;1.60;;;19.90;94.80;;;;;;4969817;28;20027;-66
2022/05/11 07:21:49;;;;;;;4.85;1.23;;;20.00;93.90;;;;;;4971256;28;20034;-67
2022/05/11 07:24:15;;;;;;;5.20;1.50;;;20.00;94.40;;;;;;4972047;28;20026;-67
2022/05/11 07:26:41;;;;;;;5.80;1.60;;;20.10;93.90;;;;;;4971693;28;20035;-67
2022/05/11 07:29:07;;;;;;;4.72;1.38;;;20.20;94.20;;;;;;4972317;28;20141;-66
2022/05/11 07:31:32;;;;;;;7.00;1.17;;;20.30;93.60;;;;;;4972854;28;20037;-67
2022/05/11 07:33:58;;;;;;;1.90;0.95;;;20.30;93.50;;;;;;4972253;28;20027;-67
2022/05/11 07:36:24;;;;;;;2.70;1.00;;;20.40;93.70;;;;;;4972783;28;20019;-67
2022/05/11 07:38:51;;;;;;;4.35;1.30;;;20.40;93.60;;;;;;4972482;28;20521;-67
2022/05/11 07:41:17;;;;;;;6.13;1.58;;;20.60;93.80;;;;;;4972661;28;20138;-67
2022/05/11 07:43:43;;;;;;;4.88;1.45;;;20.70;93.40;;;;;;4971987;28;20037;-67
2022/05/11 07:46:09;;;;;;;3.63;1.40;;;20.70;93.60;;;;;;4972579;28;20039;-67
2022/05/11 07:48:35;;;;;;;3.28;1.30;;;20.80;93.60;;;;;;4964077;28;20080;-67
2022/05/11 07:51:01;;;;;;;4.82;1.35;;;21.00;94.00;;;;;;4971618;28;20050;-67
2022/05/11 07:53:26;;;;;;;7.18;1.20;;;21.10;93.10;;;;;;4972038;28;20023;-67
2022/05/11 07:59:52;;;;;;;2.58;1.50;;;21.10;92.50;;;;;;4971858;28;20027;-67
2022/05/11 08:01:22;;;;;;;3.28;1.33;;;21.20;93.40;;;;;;4952853;29;20575;-67
2022/05/11 08:03:48;;;;;;;5.60;1.58;;;21.40;92.90;;;;;;4970635;28;20109;-67
2022/05/11 08:06:16;;;;;;;4.70;1.52;;;21.50;93.00;;;;;;4972094;28;20039;-67
2022/05/11 08:08:44;;;;;;;4.90;1.40;;;21.60;93.10;;;;;;4971689;28;20031;-67
2022/05/11 08:11:10;;;;;;;5.95;1.77;;;21.60;93.20;;;;;;4971582;28;20088;-67
2022/05/11 08:13:35;;;;;;;5.28;1.50;;;21.90;93.30;;;;;;4972177;28;20030;-67
2022/05/11 08:16:01;;;;;;;3.63;1.75;;;21.90;93.00;;;;;;4971839;28;20481;-67
2022/05/11 08:18:27;;;;;;;8.65;1.73;;;21.90;92.30;;;;;;4971607;28;20038;-67
2022/05/11 08:20:53;;;;;;;3.13;1.40;;;21.90;92.40;;;;;;4971363;28;20055;-67
2022/05/11 08:23:19;;;;;;;3.92;1.42;;;21.90;92.00;;;;;;4970425;28;20085;-67
2022/05/11 08:25:49;;;;;;;3.40;1.50;;;22.10;92.20;;;;;;4971793;28;20395;-67
2022/05/11 08:28:21;;;;;;;7.85;1.60;;;22.20;91.80;;;;;;4970738;28;20023;-67
2022/05/11 08:33:34;;;;;;;7.13;2.28;;;22.40;92.30;;;;;;4972103;28;20077;-67
2022/05/11 08:36:03;;;;;;;7.20;1.88;;;22.40;91.90;;;;;;4970712;28;20110;-67
2022/05/11 08:38:33;;;;;;;8.23;1.60;;;22.60;91.50;;;;;;4970846;28;20076;-67
2022/05/11 08:41:14;;;;;;;6.07;1.80;;;22.60;91.00;;;;;;4970971;28;20041;-67
2022/05/11 08:43:41;;;;;;;3.40;1.80;;;22.60;91.40;;;;;;4971584;28;20440;-67
2022/05/11 08:46:30;;;;;;;5.13;1.65;;;22.70;91.20;;;;;;4971107;28;20441;-67
2022/05/11 08:49:02;;;;;;;4.82;2.05;;;22.80;91.50;;;;;;4970888;28;20038;-67
2022/05/11 08:51:56;;;;;;;5.13;1.60;;;22.90;91.30;;;;;;4971244;28;20072;-67
2022/05/11 08:54:38;;;;;;;8.13;2.08;;;23.10;92.00;;;;;;4971416;28;20019;-67
2022/05/11 08:57:11;;;;;;;6.22;1.95;;;23.30;91.20;;;;;;4970047;28;20027;-67
2022/05/11 08:59:37;;;;;;;;;;;23.40;91.50;;;;;;4971146;28;20030;-67
2022/05/11 09:02:05;;;;;;;4.97;1.80;;;23.50;91.00;;;;;;4971299;28;19910;-67
2022/05/11 09:04:46;;;;;;;3.97;1.88;;;23.60;91.50;;;;;;4971409;28;20039;-67
2022/05/11 09:07:12;;;;;;;7.05;1.88;;;23.60;91.10;;;;;;4970809;28;20033;-67
2022/05/11 09:09:38;;;;;;;3.45;2.13;;;23.60;90.80;;;;;;4970956;28;20446;-65
2022/05/11 09:12:05;;;;;;;4.75;1.92;;;23.60;91.10;;;;;;4971005;28;20039;-67
2022/05/11 09:14:42;;;;;;;4.20;1.80;;;23.80;90.70;;;;;;4970768;28;20463;-67
2022/05/11 09:17:22;;;;;;;3.90;1.90;;;23.70;90.60;;;;;;4970070;28;20030;-67
2022/05/11 09:20:07;;;;;;;5.10;1.80;;;23.90;91.10;;;;;;4969597;28;20486;-67
2022/05/11 09:22:37;;;;;;;8.30;2.10;;;24.10;91.00;;;;;;4970552;28;20027;-67
2022/05/11 09:25:17;;;;;;;5.43;2.08;;;24.20;91.10;;;;;;4969771;28;20046;-67
2022/05/11 09:27:42;;;;;;;5.88;2.38;;;24.10;90.40;;;;;;4970198;28;20034;-67
2022/05/11 09:30:27;;;;;;;3.90;2.35;;;24.30;90.30;;;;;;4970685;28;20391;-67
2022/05/11 09:33:14;;;;;;;3.45;1.90;;;24.40;91.10;;;;;;4970234;28;20053;-67
2022/05/11 09:35:40;;;;;;;5.80;1.90;;;24.40;90.30;;;;;;4971066;28;20098;-67
2022/05/11 09:38:10;;;;;;;5.85;2.15;;;24.70;90.80;;;;;;4969147;28;20449;-67
2022/05/11 09:40:57;;;;;;;2.88;1.98;;;24.80;90.50;;;;;;4969960;28;20038;-68
2022/05/11 09:43:27;;;;;;;11.13;1.70;;;24.90;90.40;;;;;;4972371;28;20027;-67
2022/05/11 09:45:53;;;;;;;4.57;2.30;;;25.10;90.20;;;;;;4973629;28;20556;-67
2022/05/11 09:48:31;;;;;;;2.90;1.95;;;25.00;88.40;;;;;;4974095;28;20027;-67
2022/05/11 09:51:22;;;;;;;4.20;1.75;;;24.80;88.40;;;;;;4973113;28;20042;-67
2022/05/11 09:54:42;;;;;;;5.68;2.20;;;25.00;90.00;;;;;;4973720;28;20027;-67
2022/05/11 09:57:08;;;;;;;4.72;1.83;;;25.00;90.00;;;;;;4972486;28;20043;-67
2022/05/11 09:59:52;;;;;;;5.50;2.42;;;25.20;88.30;;;;;;4972983;28;20027;-67
2022/05/11 10:02:34;;;;;;;4.00;2.10;;;25.30;87.90;;;;;;4988148;28;20034;-67
2022/05/11 10:05:26;;;;;;;5.68;1.95;;;25.30;87.90;;;;;;4992595;28;20022;-67
2022/05/11 10:08:12;;;;;;;4.82;2.03;;;25.50;88.80;;;;;;4983311;28;20119;-67
2022/05/11 10:10:43;;;;;;;4.85;2.20;;;25.70;89.80;;;;;;4973325;28;20069;-67
2022/05/11 10:13:21;;;;;;;4.40;2.28;;;25.70;87.00;;;;;;4972765;28;20092;-67
2022/05/11 10:21:53;;;;;;;37.92;4.22;;;25.40;87.50;;;;;;4973099;28;20042;-67
2022/05/11 10:24:52;;;;;;;10.52;2.20;;;25.50;86.30;;;;;;4972320;28;20023;-68
2022/05/11 10:27:29;;;;;;;9.20;2.17;;;25.70;87.00;;;;;;4973203;28;20040;-67
2022/05/11 10:30:08;;;;;;;6.75;2.55;;;25.70;88.10;;;;;;4972488;28;20114;-67
2022/05/11 10:33:01;;;;;;;4.00;2.28;;;25.80;87.90;;;;;;4973202;28;20105;-68
2022/05/11 10:35:40;;;;;;;5.40;2.15;;;25.80;86.00;;;;;;4972992;28;20030;-68
2022/05/11 10:38:26;;;;;;;7.97;2.42;;;26.10;86.10;;;;;;4972268;28;20031;-70
2022/05/11 10:41:03;;;;;;;3.45;2.20;;;26.10;85.10;;;;;;4972407;28;20043;-70
2022/05/11 10:43:50;;;;;;;8.82;2.83;;;26.20;86.60;;;;;;4971695;28;20023;-70
2022/05/11 10:46:26;;;;;;;7.30;2.25;;;26.10;87.00;;;;;;4973064;28;20038;-70
2022/05/11 10:49:23;;;;;;;6.85;2.53;;;26.40;85.70;;;;;;4972269;28;20113;-70
2022/05/11 10:52:10;;;;;;;6.40;2.00;;;26.30;87.10;;;;;;4972690;28;20027;-70
2022/05/11 10:54:57;;;;;;;6.13;2.10;;;26.60;88.20;;;;;;4972546;28;20066;-70
2022/05/11 10:57:44;;;;;;;6.53;2.28;;;26.70;84.90;;;;;;4985467;28;20033;-71
2022/05/11 11:00:13;;;;;;;7.82;2.35;;;26.80;85.30;;;;;;4971476;28;20062;-70
2022/05/11 11:02:56;;;;;;;4.22;1.70;;;26.90;83.80;;;;;;4972506;28;20023;-70
2022/05/11 11:05:42;;;;;;;3.90;1.90;;;26.80;84.50;;;;;;4972766;28;20053;-69
2022/05/11 11:08:20;;;;;;;4.22;1.50;;;26.90;86.20;;;;;;4971657;28;20038;-69
2022/05/11 11:10:53;;;;;;;2.72;1.67;;;27.00;84.10;;;;;;4971487;28;20054;-69
2022/05/11 11:13:22;;;;;;;5.90;2.40;;;27.00;84.30;;;;;;4972326;28;20057;-69
2022/05/11 11:15:50;;;;;;;2.97;1.92;;;27.00;84.60;;;;;;4972128;28;20060;-69
2022/05/11 11:18:28;;;;;;;4.68;1.65;;;26.90;84.80;;;;;;4971697;28;20095;-70
2022/05/11 11:20:58;;;;;;;3.88;1.90;;;26.70;84.90;;;;;;4972183;28;20019;-69
2022/05/11 11:23:24;;;;;;;5.80;1.70;;;27.00;86.70;;;;;;4971748;28;20050;-70
2022/05/11 11:25:53;;;;;;;5.47;2.00;;;27.10;86.70;;;;;;4972613;28;20089;-70
2022/05/11 11:28:40;;;;;;;6.28;2.22;;;27.20;84.80;;;;;;4971921;28;20514;-70
2022/05/11 11:31:09;;;;;;;4.25;1.75;;;27.30;83.50;;;;;;4985103;28;20054;-70
2022/05/11 11:34:03;;;;;;;4.05;1.70;;;27.10;83.80;;;;;;4971266;28;20027;-69
2022/05/11 11:36:35;;;;;;;5.30;1.85;;;27.10;84.20;;;;;;4971030;28;20033;-70
2022/05/11 11:39:04;;;;;;;2.80;1.70;;;27.10;83.70;;;;;;4971550;28;20034;-70
2022/05/11 11:41:33;;;;;;;6.78;2.08;;;27.00;85.20;;;;;;4972267;28;20386;-70
2022/05/11 11:43:58;;;;;;;3.33;1.83;;;27.20;84.20;;;;;;4972302;28;20022;-70
2022/05/11 11:46:34;;;;;;;3.88;1.45;;;27.40;83.50;;;;;;4972251;28;20046;-70
2022/05/11 11:49:18;;;;;;;5.35;2.00;;;27.50;83.70;;;;;;4970562;28;20034;-70
2022/05/11 11:51:53;;;;;;;4.90;1.88;;;27.80;83.00;;;;;;4971520;28;20031;-70
2022/05/11 11:54:49;;;;;;;6.50;1.80;;;27.80;84.40;;;;;;4971392;28;20479;-70
2022/05/11 11:57:16;;;;;;;3.65;1.83;;;27.90;84.60;;;;;;4971684;28;20387;-70
2022/05/11 11:59:49;;;;;;;5.07;1.80;;;27.90;84.10;;;;;;4971475;28;20050;-70
2022/05/11 12:02:23;;;;;;;4.85;1.55;;;27.70;85.30;;;;;;4972461;28;20033;-70
2022/05/11 12:04:58;;;;;;;5.60;2.17;;;27.90;83.80;;;;;;4971197;28;20026;-70
2022/05/11 12:15:40;;;;;;;12.40;2.00;;;27.90;83.50;;;;;;4970659;28;20042;-70
2022/05/11 12:18:26;;;;;;;3.50;1.85;;;28.10;84.00;;;;;;4970938;28;20084;-69
2022/05/11 12:20:54;;;;;;;8.90;2.05;;;28.20;83.30;;;;;;4970550;28;20027;-71
2022/05/11 12:23:24;;;;;;;5.65;1.50;;;28.10;82.90;;;;;;4970214;28;20022;-71
2022/05/11 12:26:03;;;;;;;5.72;1.70;;;28.20;82.30;;;;;;4971926;28;20069;-71
2022/05/11 12:28:43;;;;;;;4.40;1.92;;;28.00;80.20;;;;;;4972054;28;20059;-71
2022/05/11 12:31:29;;;;;;;9.30;2.20;;;27.90;81.60;;;;;;4971467;28;20023;-71
2022/05/11 12:33:55;;;;;;;3.75;1.90;;;28.10;82.70;;;;;;4970540;28;20023;-72
2022/05/11 12:36:36;;;;;;;3.75;2.00;;;28.20;80.70;;;;;;4971681;28;20031;-71
2022/05/11 12:39:03;;;;;;;4.15;2.10;;;28.40;82.80;;;;;;4970626;28;20102;-72
2022/05/11 12:41:29;;;;;;;6.72;2.00;;;28.50;81.70;;;;;;4971776;28;20172;-71
2022/05/11 12:44:15;;;;;;;8.57;2.20;;;28.20;81.40;;;;;;4971020;28;20106;-71
2022/05/11 12:46:42;;;;;;;8.82;2.30;;;28.30;82.20;;;;;;4971370;28;20054;-71
2022/05/11 12:49:14;;;;;;;7.82;2.80;;;28.20;81.50;;;;;;4971437;28;20391;-69
2022/05/11 12:52:05;;;;;;;7.32;2.78;;;27.90;81.70;;;;;;4971200;28;20026;-69
2022/05/11 12:54:31;;;;;;;24.92;5.57;;;27.90;84.80;;;;;;4971728;28;20022;-70
2022/05/11 12:57:05;;;;;;;8.50;2.83;;;27.90;81.80;;;;;;4971512;28;20038;-69
2022/05/11 12:59:33;;;;;;;4.40;2.20;;;28.00;81.30;;;;;;4971149;28;20030;-70
2022/05/11 13:02:17;;;;;;;6.90;2.28;;;28.00;80.20;;;;;;4971603;28;20047;-68
2022/05/11 13:04:51;;;;;;;4.95;2.28;;;28.10;79.80;;;;;;4971597;28;20026;-69
2022/05/11 13:07:21;;;;;;;5.80;2.55;;;28.40;80.70;;;;;;4970846;28;20042;-69
2022/05/11 13:09:51;;;;;;;4.82;2.97;;;28.40;82.00;;;;;;4958631;28;20023;-69
2022/05/11 13:12:17;;;;;;;4.70;2.88;;;28.40;80.80;;;;;;4951695;28;20161;-69
2022/05/11 13:14:54;;;;;;;4.20;3.00;;;28.40;78.70;;;;;;4964397;28;20105;-70
2022/05/11 13:17:25;;;;;;;4.35;3.10;;;28.60;80.50;;;;;;4972212;28;20084;-70
2022/05/11 13:20:07;;;;;;;5.95;3.58;;;28.50;79.60;;;;;;4974511;28;20023;-70
2022/05/11 13:22:33;;;;;;;9.70;3.33;;;28.50;83.20;;;;;;4972148;28;20031;-71
2022/05/11 13:25:05;;;;;;;6.72;3.22;;;28.60;80.90;;;;;;4959334;28;20022;-71
2022/05/11 13:27:39;;;;;;;;;;;28.40;79.30;;;;;;4973971;28;20423;-70
2022/05/11 13:30:21;;;;;;;8.50;3.50;;;28.50;80.20;;;;;;4974148;28;20011;-70
2022/05/11 13:32:53;;;;;;;7.43;3.40;;;28.50;79.90;;;;;;4974603;28;20026;-70
2022/05/11 13:35:39;;;;;;;10.43;3.40;;;28.40;79.80;;;;;;4973818;28;20026;-70
2022/05/11 13:38:10;;;;;;;9.55;2.63;;;28.50;79.70;;;;;;4972945;28;20062;-70
2022/05/11 13:40:58;;;;;;;3.90;2.90;;;28.40;79.60;;;;;;4974366;28;20042;-70
2022/05/11 13:43:26;;;;;;;3.13;2.83;;;28.40;80.00;;;;;;4973059;28;20019;-70
2022/05/11 13:45:56;;;;;;;7.80;3.50;;;28.20;79.20;;;;;;4973977;28;20548;-70